Time;durP1;ratioP1;P1;durP2;ratioP2;P2;SDS_P1;SDS_P2;PMS_P1;PMS_P2;Temp;Humidity;BMP_temperature;BMP_pressure;BME280_temperature;BME280_humidity;BME280_pressure;Samples;Min_cycle;Max_cycle;Signal;HPM_P1;HPM_P2
2022/10/22 00:00:13;;;;;;;1.85;0.80;;;22.80;99.90;;;;;;5085114;28;20208;-92
2022/10/22 00:02:46;;;;;;;2.72;0.93;;;22.80;99.90;;;;;;5080810;28;20302;-92
2022/10/22 00:05:18;;;;;;;3.35;0.93;;;22.90;99.90;;;;;;5094729;28;20196;-91
2022/10/22 00:07:51;;;;;;;3.08;0.90;;;22.90;99.90;;;;;;5095480;28;20217;-92
2022/10/22 00:10:25;;;;;;;2.30;0.90;;;22.90;99.90;;;;;;5096739;28;20578;-95
2022/10/22 00:13:02;;;;;;;4.70;1.20;;;22.90;99.90;;;;;;5091710;28;20190;-96
2022/10/22 00:15:36;;;;;;;4.30;1.25;;;23.00;99.90;;;;;;5116576;28;20217;-95
2022/10/22 00:18:11;;;;;;;5.93;1.17;;;23.10;99.90;;;;;;5105796;28;20222;-95
2022/10/22 00:20:46;;;;;;;5.93;1.40;;;23.10;99.90;;;;;;5104377;28;20265;-96
2022/10/22 00:23:20;;;;;;;7.10;1.77;;;23.10;99.90;;;;;;5104050;28;20270;-96
2022/10/22 00:25:52;;;;;;;8.38;1.70;;;23.30;99.90;;;;;;5109442;28;20255;-96
2022/10/22 00:28:28;;;;;;;11.70;2.00;;;23.50;99.90;;;;;;5104325;28;20192;-96
2022/10/22 00:31:01;;;;;;;8.93;2.30;;;23.80;99.90;;;;;;5093961;28;20187;-96
2022/10/22 00:33:40;;;;;;;9.07;2.25;;;24.00;99.90;;;;;;5112773;28;20195;-96
2022/10/22 00:36:13;;;;;;;12.93;2.25;;;24.10;99.90;;;;;;5108752;28;20179;-96
2022/10/22 00:38:46;;;;;;;9.70;2.40;;;24.20;99.90;;;;;;5114276;28;20202;-96
2022/10/22 00:41:18;;;;;;;7.13;1.80;;;24.30;99.90;;;;;;5098990;28;20219;-94
2022/10/22 00:44:06;;;;;;;8.32;2.13;;;24.40;99.90;;;;;;5105015;28;20307;-96
2022/10/22 00:46:42;;;;;;;12.00;1.90;;;24.50;99.90;;;;;;5107628;28;20223;-96
2022/10/22 00:49:14;;;;;;;6.63;1.80;;;24.70;99.90;;;;;;5114538;28;20205;-96
2022/10/22 00:51:49;;;;;;;12.40;2.28;;;24.90;99.90;;;;;;5117602;28;20617;-96
2022/10/22 00:54:22;;;;;;;7.18;1.98;;;25.10;99.90;;;;;;5097110;28;20185;-96
2022/10/22 00:56:54;;;;;;;9.68;2.00;;;25.30;99.90;;;;;;5105285;28;20207;-96
2022/10/22 00:59:29;;;;;;;5.05;1.65;;;25.50;99.90;;;;;;5111824;28;20302;-96
2022/10/22 01:02:02;;;;;;;7.35;1.90;;;25.50;99.90;;;;;;5103705;28;20207;-96
2022/10/22 01:04:41;;;;;;;8.43;1.58;;;25.70;99.90;;;;;;5081159;28;20223;-96
2022/10/22 01:07:19;;;;;;;7.43;1.70;;;25.90;99.90;;;;;;5115520;28;20163;-90
2022/10/22 01:10:01;;;;;;;8.43;1.77;;;26.00;99.90;;;;;;5095693;28;20194;-94
2022/10/22 01:12:44;;;;;;;6.40;1.77;;;26.10;99.90;;;;;;5102916;28;20207;-96
2022/10/22 01:15:28;;;;;;;6.05;1.45;;;26.10;99.90;;;;;;5083739;28;20196;-95
2022/10/22 01:20:59;;;;;;;8.82;1.95;;;26.40;99.90;;;;;;5100492;28;20195;-95
2022/10/22 01:24:09;;;;;;;11.15;1.90;;;26.60;99.90;;;;;;5086856;28;20214;-95
2022/10/22 01:26:53;;;;;;;9.68;2.13;;;26.70;99.90;;;;;;5066911;28;20191;-94
2022/10/22 01:29:33;;;;;;;6.88;1.92;;;26.90;99.90;;;;;;5109523;28;20263;-93
2022/10/22 01:32:07;;;;;;;9.10;1.90;;;27.10;99.90;;;;;;5079695;28;20196;-93
2022/10/22 01:34:42;;;;;;;10.15;2.25;;;27.00;99.90;;;;;;5077482;28;20191;-94
2022/10/22 01:37:17;;;;;;;9.30;2.15;;;27.00;99.90;;;;;;5078994;28;20187;-93
2022/10/22 01:39:49;;;;;;;9.10;2.63;;;27.00;99.90;;;;;;5104566;28;20275;-87
2022/10/22 01:42:22;;;;;;;13.13;3.03;;;26.90;99.90;;;;;;5103018;28;20689;-91
2022/10/22 01:44:58;;;;;;;9.52;2.20;;;26.80;99.90;;;;;;5093937;28;20199;-88
2022/10/22 01:47:42;;;;;;;11.48;2.80;;;26.70;99.90;;;;;;5093215;28;20191;-89
2022/10/22 01:50:39;;;;;;;16.05;3.33;;;26.50;99.90;;;;;;5093952;28;20233;-90
2022/10/22 01:53:34;;;;;;;14.15;3.47;;;26.30;99.90;;;;;;5093899;28;20681;-90
2022/10/22 01:56:21;;;;;;;16.05;2.65;;;26.10;99.90;;;;;;5078206;28;20208;-88
2022/10/22 01:59:02;;;;;;;15.73;2.70;;;25.90;99.90;;;;;;5077693;28;20219;-89
2022/10/22 02:01:46;;;;;;;13.35;3.10;;;25.70;99.90;;;;;;5092741;28;20199;-89
2022/10/22 02:04:22;;;;;;;8.73;2.45;;;25.60;99.90;;;;;;5092501;28;20219;-90
2022/10/22 02:06:57;;;;;;;11.15;2.53;;;25.50;99.90;;;;;;5094383;28;20211;-88
2022/10/22 02:09:32;;;;;;;13.45;2.72;;;25.40;99.90;;;;;;5093224;28;20574;-90
2022/10/22 02:12:08;;;;;;;12.35;2.95;;;25.40;99.90;;;;;;5093605;28;20230;-89
2022/10/22 02:14:42;;;;;;;12.50;3.20;;;25.30;99.90;;;;;;5092345;28;20203;-88
2022/10/22 02:17:20;;;;;;;12.65;2.58;;;25.40;99.90;;;;;;5092178;28;20191;-89
2022/10/22 02:19:56;;;;;;;9.13;2.58;;;25.20;99.90;;;;;;5096325;28;20198;-90
2022/10/22 02:22:29;;;;;;;8.35;2.20;;;25.10;99.90;;;;;;5080465;28;20244;-89
2022/10/22 02:25:00;;;;;;;12.40;2.38;;;25.00;99.90;;;;;;5113820;28;20294;-89
2022/10/22 02:27:34;;;;;;;18.48;3.53;;;25.00;99.90;;;;;;5113417;28;20205;-89
2022/10/22 02:30:12;;;;;;;17.38;2.75;;;25.00;99.90;;;;;;5095617;28;20201;-90
2022/10/22 02:32:46;;;;;;;9.93;2.78;;;24.90;99.90;;;;;;5098241;28;20199;-90
2022/10/22 02:35:19;;;;;;;17.30;2.80;;;24.90;99.90;;;;;;5106896;28;20194;-90
2022/10/22 02:37:51;;;;;;;17.95;2.97;;;24.90;99.90;;;;;;5095033;28;20195;-89
2022/10/22 02:40:25;;;;;;;16.05;3.55;;;24.90;99.90;;;;;;5093757;28;20211;-90
2022/10/22 02:42:56;;;;;;;12.65;2.95;;;25.00;99.90;;;;;;5115533;28;20211;-90
2022/10/22 02:45:27;;;;;;;12.98;2.80;;;25.00;99.90;;;;;;5097079;28;20622;-89
2022/10/22 02:48:02;;;;;;;13.10;3.10;;;24.80;99.90;;;;;;5096834;28;20205;-90
2022/10/22 02:50:36;;;;;;;17.23;3.28;;;24.90;99.90;;;;;;5087842;28;20206;-90
2022/10/22 02:53:08;;;;;;;15.48;3.20;;;24.90;99.90;;;;;;5089206;28;20204;-89
2022/10/22 02:55:41;;;;;;;16.75;3.28;;;24.80;99.90;;;;;;5097467;28;20321;-89
2022/10/22 02:58:12;;;;;;;13.45;2.75;;;24.90;99.90;;;;;;5077963;28;20238;-90
2022/10/22 03:00:45;;;;;;;11.75;2.78;;;24.70;99.90;;;;;;5096027;28;20225;-89
2022/10/22 03:03:20;;;;;;;12.85;3.08;;;24.70;99.90;;;;;;5100607;28;20561;-89
2022/10/22 03:05:53;;;;;;;16.02;3.20;;;24.70;99.90;;;;;;5095990;28;20203;-89
2022/10/22 03:08:25;;;;;;;15.18;2.88;;;24.60;99.90;;;;;;5077050;28;20681;-87
2022/10/22 03:10:57;;;;;;;14.63;2.85;;;24.60;99.90;;;;;;5074924;28;20200;-89
2022/10/22 03:13:28;;;;;;;11.43;2.72;;;24.50;99.90;;;;;;5074306;28;20204;-90
2022/10/22 03:16:00;;;;;;;15.30;3.20;;;24.50;99.90;;;;;;5078306;28;20204;-88
2022/10/22 03:18:34;;;;;;;15.52;3.28;;;24.50;99.90;;;;;;5086896;28;20209;-87
2022/10/22 03:21:11;;;;;;;15.13;3.33;;;24.40;99.90;;;;;;5110650;28;20198;-88
2022/10/22 03:23:44;;;;;;;15.15;3.05;;;24.30;99.90;;;;;;5089213;28;20216;-89
2022/10/22 03:26:17;;;;;;;20.35;3.90;;;24.30;99.90;;;;;;5057518;28;20654;-89
2022/10/22 03:28:48;;;;;;;19.05;4.00;;;24.30;99.90;;;;;;5075398;28;20196;-91
2022/10/22 03:31:19;;;;;;;16.40;3.20;;;24.20;99.90;;;;;;5082874;28;20682;-91
2022/10/22 03:33:52;;;;;;;17.75;3.50;;;24.30;99.90;;;;;;5108794;28;20195;-92
2022/10/22 03:36:24;;;;;;;13.73;2.97;;;24.30;99.90;;;;;;5096679;28;20214;-91
2022/10/22 03:38:55;;;;;;;19.98;3.20;;;24.30;99.90;;;;;;5074574;28;20208;-91
2022/10/22 03:41:26;;;;;;;13.02;2.83;;;24.20;99.90;;;;;;5055398;28;20294;-90
2022/10/22 03:43:58;;;;;;;15.55;3.25;;;24.10;99.90;;;;;;5078529;28;20276;-90
2022/10/22 03:46:30;;;;;;;13.43;3.15;;;24.10;99.90;;;;;;5058581;28;20205;-90
2022/10/22 03:49:04;;;;;;;15.27;2.80;;;24.10;99.90;;;;;;5071246;28;20204;-90
2022/10/22 03:51:37;;;;;;;16.83;2.95;;;24.00;99.90;;;;;;5075274;28;20214;-91
2022/10/22 03:54:12;;;;;;;14.63;3.17;;;24.00;99.90;;;;;;5073237;28;20196;-91
2022/10/22 03:56:43;;;;;;;15.77;2.78;;;23.90;99.90;;;;;;5074064;28;20199;-89
2022/10/22 03:59:15;;;;;;;15.48;3.60;;;23.70;99.90;;;;;;5074532;28;20224;-89
2022/10/22 04:01:46;;;;;;;17.55;3.80;;;23.70;99.90;;;;;;5074475;28;20279;-90
2022/10/22 04:04:20;;;;;;;17.83;3.58;;;23.60;99.90;;;;;;5074248;28;20233;-90
2022/10/22 04:06:52;;;;;;;20.55;3.75;;;23.50;99.90;;;;;;5074377;28;20209;-90
2022/10/22 04:09:25;;;;;;;19.15;3.50;;;23.50;99.90;;;;;;5077365;28;20206;-91
2022/10/22 04:11:56;;;;;;;23.05;4.30;;;23.50;99.90;;;;;;5091170;28;20208;-89
2022/10/22 04:14:28;;;;;;;17.05;3.75;;;23.50;99.90;;;;;;5072371;28;20292;-87
2022/10/22 04:16:59;;;;;;;14.82;3.60;;;23.50;99.90;;;;;;5074430;28;20227;-90
2022/10/22 04:19:33;;;;;;;15.73;3.55;;;23.30;99.90;;;;;;5083580;28;20208;-90
2022/10/22 04:22:05;;;;;;;19.27;3.63;;;23.30;99.90;;;;;;5083459;28;20218;-91
2022/10/22 04:24:36;;;;;;;21.30;3.72;;;23.30;99.90;;;;;;5080156;28;20615;-91
2022/10/22 04:27:08;;;;;;;21.65;3.75;;;23.30;99.90;;;;;;5067549;28;20663;-91
2022/10/22 04:29:39;;;;;;;23.90;4.30;;;23.30;99.90;;;;;;5061404;28;20689;-91
2022/10/22 04:32:11;;;;;;;17.05;4.03;;;23.30;99.90;;;;;;5059487;28;20207;-90
2022/10/22 04:34:46;;;;;;;19.02;3.83;;;23.30;99.90;;;;;;5075988;28;20196;-93
2022/10/22 04:37:18;;;;;;;18.45;3.67;;;23.30;99.90;;;;;;5073986;28;20202;-96
2022/10/22 04:39:49;;;;;;;20.40;4.20;;;23.40;99.90;;;;;;5076670;28;20231;-93
2022/10/22 04:42:20;;;;;;;18.25;3.45;;;23.40;99.90;;;;;;5093624;28;20227;-89
2022/10/22 04:44:51;;;;;;;15.95;3.60;;;23.50;99.90;;;;;;5115869;28;20279;-88
2022/10/22 04:47:23;;;;;;;15.25;2.95;;;23.60;99.90;;;;;;5096346;28;20201;-93
2022/10/22 04:49:58;;;;;;;17.33;3.22;;;23.70;99.90;;;;;;5092312;28;20680;-94
2022/10/22 04:52:30;;;;;;;24.42;3.90;;;23.80;99.90;;;;;;5057789;28;20199;-93
2022/10/22 04:55:01;;;;;;;22.42;3.90;;;23.80;99.90;;;;;;5074983;28;20212;-91
2022/10/22 04:57:33;;;;;;;14.95;3.00;;;23.80;99.90;;;;;;5079720;28;20203;-95
2022/10/22 05:00:04;;;;;;;13.93;3.42;;;23.80;99.90;;;;;;5095016;28;20199;-93
2022/10/22 05:02:36;;;;;;;16.00;3.10;;;23.80;99.90;;;;;;5094155;28;20199;-91
2022/10/22 05:05:11;;;;;;;19.33;3.60;;;23.80;99.90;;;;;;5095905;28;20223;-93
2022/10/22 05:07:42;;;;;;;16.20;3.28;;;23.70;99.90;;;;;;5075411;28;20204;-94
2022/10/22 05:10:17;;;;;;;16.10;3.00;;;23.70;99.90;;;;;;5056174;28;20196;-94
2022/10/22 05:12:48;;;;;;;22.45;3.80;;;23.70;99.90;;;;;;5090515;28;20281;-94
2022/10/22 05:15:21;;;;;;;14.90;3.25;;;23.70;99.90;;;;;;5096503;28;20191;-94
2022/10/22 05:17:53;;;;;;;18.80;3.33;;;23.70;99.90;;;;;;5095332;28;20193;-92
2022/10/22 05:20:28;;;;;;;18.27;3.63;;;23.80;99.90;;;;;;5074662;28;20200;-92
2022/10/22 05:23:01;;;;;;;13.75;2.88;;;23.70;99.90;;;;;;5072955;28;20238;-94
2022/10/22 05:25:33;;;;;;;16.85;3.55;;;23.80;99.90;;;;;;5056750;28;20223;-92
2022/10/22 05:28:04;;;;;;;15.00;3.38;;;23.80;99.90;;;;;;5076195;28;20244;-94
2022/10/22 05:30:35;;;;;;;19.63;4.00;;;23.90;99.90;;;;;;5061705;28;20223;-92
2022/10/22 05:33:09;;;;;;;15.98;3.30;;;23.90;99.90;;;;;;5076176;28;20199;-93
2022/10/22 05:35:44;;;;;;;18.42;3.58;;;23.90;99.90;;;;;;5106774;28;20206;-93
2022/10/22 05:38:15;;;;;;;13.48;3.00;;;23.90;99.90;;;;;;5118083;28;20396;-92
2022/10/22 05:40:47;;;;;;;14.75;3.85;;;23.90;99.90;;;;;;5112265;28;20235;-92
2022/10/22 05:43:18;;;;;;;13.48;2.85;;;23.80;99.90;;;;;;5098553;28;20180;-91
2022/10/22 05:45:48;;;;;;;15.50;2.97;;;23.70;99.90;;;;;;5114983;28;20202;-93
2022/10/22 05:48:19;;;;;;;13.18;3.10;;;23.60;99.90;;;;;;5093627;28;20222;-94
2022/10/22 05:50:54;;;;;;;15.07;3.15;;;23.50;99.90;;;;;;5065814;28;20195;-94
2022/10/22 05:53:29;;;;;;;16.10;3.40;;;23.50;99.90;;;;;;5088036;28;20661;-93
2022/10/22 05:56:04;;;;;;;15.82;3.38;;;23.50;99.90;;;;;;5091433;28;20210;-93
2022/10/22 05:58:36;;;;;;;18.00;3.67;;;23.50;99.90;;;;;;5092239;28;20245;-93
2022/10/22 06:01:11;;;;;;;15.43;3.72;;;23.40;99.90;;;;;;5092501;28;20303;-93
2022/10/22 06:03:43;;;;;;;17.90;3.45;;;23.30;99.90;;;;;;5073061;28;20229;-93
2022/10/22 06:06:22;;;;;;;18.27;3.35;;;23.30;99.90;;;;;;5079626;28;20218;-93
2022/10/22 06:08:58;;;;;;;15.30;3.10;;;23.20;99.90;;;;;;5107881;28;20195;-92
2022/10/22 06:11:29;;;;;;;13.57;3.05;;;23.20;99.90;;;;;;5101419;28;20645;-91
2022/10/22 06:14:01;;;;;;;17.38;3.65;;;23.30;99.90;;;;;;5090363;28;20281;-91
2022/10/22 06:16:33;;;;;;;13.13;2.92;;;23.20;99.90;;;;;;5072800;28;20200;-93
2022/10/22 06:19:06;;;;;;;16.77;3.38;;;23.30;99.90;;;;;;5086174;28;20230;-92
2022/10/22 06:21:41;;;;;;;15.57;3.33;;;23.40;99.90;;;;;;5082538;28;20205;-93
2022/10/22 06:24:14;;;;;;;17.70;3.20;;;23.30;99.90;;;;;;5102367;28;20237;-93
2022/10/22 06:26:45;;;;;;;15.88;3.78;;;23.40;99.90;;;;;;5096360;28;20199;-93
2022/10/22 06:29:16;;;;;;;20.08;4.10;;;23.40;99.90;;;;;;5092332;28;20203;-93
2022/10/22 06:31:48;;;;;;;16.13;3.38;;;23.50;99.90;;;;;;5079661;28;20569;-93
2022/10/22 06:34:20;;;;;;;14.48;3.40;;;23.50;99.90;;;;;;5072994;28;20196;-93
2022/10/22 06:36:59;;;;;;;17.40;3.75;;;23.70;99.90;;;;;;5071502;28;20222;-93
2022/10/22 06:39:30;;;;;;;17.83;3.75;;;23.80;99.90;;;;;;5072316;28;20195;-93
2022/10/22 06:42:01;;;;;;;17.88;4.03;;;24.00;99.90;;;;;;5078197;28;20220;-90
2022/10/22 06:44:33;;;;;;;18.90;3.60;;;24.10;99.90;;;;;;5080118;28;20224;-90
2022/10/22 06:47:04;;;;;;;14.35;3.22;;;24.10;99.90;;;;;;5083931;28;20234;-89
2022/10/22 06:49:36;;;;;;;15.30;3.55;;;24.10;99.90;;;;;;5086543;28;20278;-89
2022/10/22 06:52:13;;;;;;;16.80;4.00;;;24.00;99.90;;;;;;5055205;28;20647;-90
2022/10/22 06:54:45;;;;;;;16.30;3.88;;;23.90;99.90;;;;;;5071649;28;20210;-89
2022/10/22 06:57:17;;;;;;;17.90;3.53;;;23.80;99.90;;;;;;5081294;28;20206;-88
2022/10/22 06:59:51;;;;;;;15.23;3.63;;;23.70;99.90;;;;;;5082458;28;20215;-88
2022/10/22 07:02:23;;;;;;;14.85;3.60;;;23.60;99.90;;;;;;5091216;28;20203;-87
2022/10/22 07:04:58;;;;;;;20.55;4.13;;;23.60;99.90;;;;;;5090385;28;20310;-89
2022/10/22 07:07:30;;;;;;;17.27;4.07;;;23.50;99.90;;;;;;5091798;28;20202;-89
2022/10/22 07:10:02;;;;;;;14.95;3.30;;;23.40;99.90;;;;;;5091006;28;20309;-90
2022/10/22 07:12:36;;;;;;;14.18;3.55;;;23.20;99.90;;;;;;5079637;28;20722;-90
2022/10/22 07:15:10;;;;;;;19.75;4.18;;;23.20;99.90;;;;;;5091977;28;20195;-90
2022/10/22 07:17:40;;;;;;;16.85;3.40;;;23.20;99.90;;;;;;5091993;28;20708;-91
2022/10/22 07:20:15;;;;;;;20.25;3.90;;;23.10;99.90;;;;;;5091765;28;20206;-90
2022/10/22 07:22:48;;;;;;;16.90;3.50;;;23.10;99.90;;;;;;5095748;28;20208;-91
2022/10/22 07:25:19;;;;;;;20.70;4.30;;;23.00;99.90;;;;;;5111806;28;20226;-91
2022/10/22 07:27:51;;;;;;;16.80;3.67;;;22.90;99.90;;;;;;5111778;28;20202;-90
2022/10/22 07:30:23;;;;;;;18.95;3.65;;;22.90;99.90;;;;;;5092554;28;20199;-88
2022/10/22 07:32:54;;;;;;;19.00;3.78;;;22.80;99.90;;;;;;5104018;28;20201;-90
2022/10/22 07:35:25;;;;;;;22.40;3.80;;;22.80;99.90;;;;;;5094808;28;20203;-88
2022/10/22 07:37:59;;;;;;;18.35;4.05;;;22.80;99.90;;;;;;5092006;28;20199;-89
2022/10/22 07:40:29;;;;;;;16.25;3.88;;;22.70;99.90;;;;;;5082854;28;20541;-90
2022/10/22 07:43:01;;;;;;;20.67;3.63;;;22.70;99.90;;;;;;5075700;28;20211;-91
2022/10/22 07:45:32;;;;;;;21.27;4.13;;;22.70;99.90;;;;;;5079652;28;20319;-90
2022/10/22 07:48:04;;;;;;;20.90;4.35;;;22.70;99.90;;;;;;5091541;28;20201;-91
2022/10/22 07:50:35;;;;;;;21.08;3.85;;;22.60;99.90;;;;;;5117967;28;20255;-90
2022/10/22 07:53:09;;;;;;;19.10;4.28;;;22.50;99.90;;;;;;5110941;28;20198;-91
2022/10/22 07:55:41;;;;;;;21.10;4.30;;;22.50;99.90;;;;;;5104551;28;20254;-84
2022/10/22 07:58:12;;;;;;;20.25;4.00;;;22.50;99.90;;;;;;5104294;28;20215;-92
2022/10/22 08:00:43;;;;;;;18.65;4.03;;;22.40;99.90;;;;;;5091060;28;20219;-92
2022/10/22 08:03:16;;;;;;;17.75;4.25;;;22.40;99.90;;;;;;5076787;28;20524;-92
2022/10/22 08:05:48;;;;;;;22.63;4.90;;;22.30;99.90;;;;;;5076979;28;20223;-93
2022/10/22 08:08:24;;;;;;;20.40;3.72;;;22.30;99.90;;;;;;5092461;28;20278;-94
2022/10/22 08:10:58;;;;;;;20.25;4.03;;;22.20;99.90;;;;;;5097098;28;20281;-91
2022/10/22 08:13:30;;;;;;;24.30;4.80;;;22.20;99.90;;;;;;5077716;28;20236;-90
2022/10/22 08:16:03;;;;;;;18.83;3.97;;;22.20;99.90;;;;;;5088181;28;20229;-89
2022/10/22 08:18:34;;;;;;;20.48;3.75;;;22.10;99.90;;;;;;5095450;28;20273;-91
2022/10/22 08:21:05;;;;;;;17.58;3.75;;;22.10;99.90;;;;;;5094803;28;20249;-91
2022/10/22 08:23:39;;;;;;;20.75;3.42;;;22.00;99.90;;;;;;5098470;28;20234;-90
2022/10/22 08:26:10;;;;;;;18.20;3.83;;;22.00;99.90;;;;;;5074085;28;20226;-89
2022/10/22 08:28:41;;;;;;;21.45;4.35;;;22.00;99.90;;;;;;5095282;28;20197;-90
2022/10/22 08:31:15;;;;;;;17.77;3.30;;;22.00;99.90;;;;;;5078186;28;20282;-92
2022/10/22 08:33:49;;;;;;;20.55;3.67;;;21.80;99.90;;;;;;5075433;28;20198;-91
2022/10/22 08:39:11;;;;;;;14.13;3.17;;;21.80;99.90;;;;;;5083627;28;20796;-91
2022/10/22 08:45:05;;;;;;;16.48;3.60;;;21.70;99.90;;;;;;5092312;28;20231;-90
2022/10/22 08:48:01;;;;;;;21.52;3.80;;;21.70;99.90;;;;;;5088490;28;20199;-90
2022/10/22 08:50:40;;;;;;;18.55;3.70;;;21.70;99.90;;;;;;5106185;28;20274;-90
2022/10/22 08:53:26;;;;;;;17.98;3.53;;;21.70;99.90;;;;;;5105388;28;20215;-89
2022/10/22 08:56:06;;;;;;;19.48;3.90;;;21.70;99.90;;;;;;5117154;28;20203;-90
2022/10/22 08:58:47;;;;;;;20.15;4.22;;;21.70;99.90;;;;;;5107753;28;20219;-87
2022/10/22 09:01:22;;;;;;;23.92;4.13;;;21.70;99.90;;;;;;5116562;28;20258;-90
2022/10/22 09:07:01;;;;;;;14.88;3.67;;;21.50;99.90;;;;;;5099642;28;20192;-90
2022/10/22 09:09:37;;;;;;;18.13;4.32;;;21.50;99.90;;;;;;5101394;28;20290;-89
2022/10/22 09:12:17;;;;;;;20.73;4.13;;;21.50;99.90;;;;;;5101161;28;20191;-88
2022/10/22 09:14:48;;;;;;;16.77;3.58;;;21.60;99.90;;;;;;5100416;28;20264;-90
2022/10/22 09:17:26;;;;;;;21.90;4.60;;;21.50;99.90;;;;;;5097942;28;20195;-89
2022/10/22 09:20:10;;;;;;;20.92;4.55;;;21.50;99.90;;;;;;5082194;28;20195;-89
2022/10/22 09:22:46;;;;;;;17.88;3.63;;;21.50;99.90;;;;;;5101106;28;20222;-88
2022/10/22 09:25:30;;;;;;;19.75;4.65;;;21.50;99.90;;;;;;5112223;28;20312;-89
2022/10/22 09:28:15;;;;;;;22.98;4.30;;;21.40;99.90;;;;;;5125373;28;20187;-89
2022/10/22 09:30:53;;;;;;;20.88;4.15;;;21.40;99.90;;;;;;5112075;28;20223;-91
2022/10/22 09:33:32;;;;;;;14.77;3.92;;;21.50;99.90;;;;;;5100703;28;20290;-90
2022/10/22 09:36:11;;;;;;;22.45;4.15;;;21.50;99.90;;;;;;5083958;28;20201;-90
2022/10/22 09:38:49;;;;;;;12.35;3.22;;;21.40;99.90;;;;;;5101165;28;20202;-89
2022/10/22 09:41:26;;;;;;;16.23;3.45;;;21.30;99.90;;;;;;5079662;28;20254;-91
2022/10/22 09:44:07;;;;;;;20.58;4.13;;;21.30;99.90;;;;;;5060204;28;20197;-90
2022/10/22 09:46:46;;;;;;;15.02;3.40;;;21.30;99.90;;;;;;5035018;28;20301;-91
2022/10/22 09:49:24;;;;;;;15.77;3.53;;;21.30;99.90;;;;;;5043358;28;20336;-90
2022/10/22 09:52:28;;;;;;;15.00;3.45;;;21.30;99.90;;;;;;5047083;28;20212;-90
2022/10/22 09:55:06;;;;;;;16.85;3.92;;;21.30;99.90;;;;;;5051498;28;20228;-91
2022/10/22 09:57:39;;;;;;;19.95;3.97;;;21.30;99.90;;;;;;5052551;28;20181;-89
2022/10/22 10:00:25;;;;;;;17.85;4.00;;;21.30;99.90;;;;;;5070855;28;20230;-91
2022/10/22 10:03:03;;;;;;;17.33;3.78;;;21.30;99.90;;;;;;5061451;28;20235;-90
2022/10/22 10:05:40;;;;;;;17.33;4.15;;;21.30;99.90;;;;;;5059738;28;20227;-91
2022/10/22 10:08:23;;;;;;;14.98;3.38;;;21.30;99.90;;;;;;5063589;28;20192;-90
2022/10/22 10:10:59;;;;;;;16.80;3.33;;;21.30;99.90;;;;;;5060011;28;20254;-91
2022/10/22 10:13:49;;;;;;;16.25;3.78;;;21.30;99.90;;;;;;5036444;28;20261;-89
2022/10/22 10:16:36;;;;;;;17.65;3.50;;;21.30;99.90;;;;;;5050694;28;20204;-91
2022/10/22 10:19:25;;;;;;;11.82;3.38;;;21.30;99.90;;;;;;5073909;28;20200;-91
2022/10/22 10:22:07;;;;;;;15.77;3.60;;;21.30;99.90;;;;;;5051361;28;20276;-91
2022/10/22 10:24:52;;;;;;;18.70;3.53;;;21.30;99.90;;;;;;5054342;28;20216;-92
2022/10/22 10:27:29;;;;;;;17.70;3.70;;;21.30;99.90;;;;;;5053352;28;20205;-92
2022/10/22 10:30:06;;;;;;;18.90;3.60;;;21.30;99.90;;;;;;5052584;28;20204;-91
2022/10/22 10:33:00;;;;;;;15.23;3.50;;;21.30;99.90;;;;;;5054986;28;20196;-94
2022/10/22 10:35:38;;;;;;;19.25;3.38;;;21.20;99.90;;;;;;5054264;28;20272;-91
2022/10/22 10:38:30;;;;;;;17.60;3.65;;;21.30;99.90;;;;;;5057754;28;20222;-91
2022/10/22 10:41:11;;;;;;;19.83;4.07;;;21.30;99.90;;;;;;5073276;28;20278;-89
2022/10/22 10:43:54;;;;;;;17.90;3.50;;;21.20;99.90;;;;;;5116668;28;20211;-91
2022/10/22 10:46:36;;;;;;;16.55;3.63;;;21.20;99.90;;;;;;5100093;28;20230;-91
2022/10/22 10:49:17;;;;;;;19.00;3.42;;;21.20;99.90;;;;;;5067061;28;20215;-90
2022/10/22 10:51:56;;;;;;;15.48;3.13;;;21.10;99.90;;;;;;5085385;28;20219;-91
2022/10/22 10:54:42;;;;;;;14.88;3.25;;;21.20;99.90;;;;;;5083729;28;20211;-91
2022/10/22 10:57:23;;;;;;;14.15;3.20;;;21.20;99.90;;;;;;5097974;28;20233;-91
2022/10/22 11:00:07;;;;;;;17.35;3.40;;;21.20;99.90;;;;;;5113779;28;20298;-86
2022/10/22 11:03:18;;;;;;;13.23;3.45;;;21.10;99.90;;;;;;5111964;28;20191;-85
2022/10/22 11:05:58;;;;;;;13.70;3.15;;;21.20;99.90;;;;;;5095204;28;20233;-89
2022/10/22 11:08:32;;;;;;;15.85;3.42;;;21.20;99.90;;;;;;5089721;28;20201;-90
2022/10/22 11:11:06;;;;;;;13.60;3.13;;;21.20;99.90;;;;;;5088073;28;20255;-90
2022/10/22 11:13:40;;;;;;;12.27;2.95;;;21.20;99.90;;;;;;5097424;28;20589;-90
2022/10/22 11:16:20;;;;;;;17.52;3.70;;;21.20;99.90;;;;;;5099473;28;20191;-90
2022/10/22 11:18:58;;;;;;;16.25;3.15;;;21.20;99.90;;;;;;5099897;28;20201;-90
2022/10/22 11:21:38;;;;;;;19.58;3.33;;;21.20;99.90;;;;;;5096151;28;20206;-90
2022/10/22 11:24:19;;;;;;;16.75;3.38;;;21.20;99.90;;;;;;5091591;28;20685;-92
2022/10/22 11:26:54;;;;;;;16.58;3.38;;;21.20;99.90;;;;;;5079629;28;20226;-91
2022/10/22 11:29:29;;;;;;;13.60;3.22;;;21.20;99.90;;;;;;5079462;28;20195;-91
2022/10/22 11:32:02;;;;;;;18.92;3.53;;;21.20;99.90;;;;;;5096726;28;20230;-90
2022/10/22 11:34:39;;;;;;;17.10;3.58;;;21.30;99.90;;;;;;5093329;28;20192;-91
2022/10/22 11:37:16;;;;;;;20.33;3.22;;;21.30;99.90;;;;;;5077573;28;20199;-91
2022/10/22 11:39:54;;;;;;;14.80;3.20;;;21.30;99.90;;;;;;5076470;28;20194;-90
2022/10/22 11:42:35;;;;;;;15.38;3.33;;;21.20;99.90;;;;;;5074734;28;20223;-89
2022/10/22 11:45:09;;;;;;;13.05;3.42;;;21.30;99.90;;;;;;5084715;28;20290;-92
2022/10/22 11:47:58;;;;;;;21.45;3.30;;;21.30;99.90;;;;;;5094923;28;20250;-89
2022/10/22 11:50:45;;;;;;;14.05;3.53;;;21.30;99.90;;;;;;5101951;28;20688;-91
2022/10/22 11:53:31;;;;;;;15.23;3.47;;;21.20;99.90;;;;;;5079031;28;20543;-90
2022/10/22 11:56:26;;;;;;;13.68;3.22;;;21.20;99.90;;;;;;5083111;28;20665;-90
2022/10/22 11:58:58;;;;;;;22.38;3.78;;;21.20;99.90;;;;;;5096543;28;20660;-89
2022/10/22 12:01:32;;;;;;;15.50;3.47;;;21.20;99.90;;;;;;5075800;28;20191;-90
2022/10/22 12:04:22;;;;;;;14.15;3.08;;;21.20;99.90;;;;;;5076531;28;20206;-88
2022/10/22 12:07:01;;;;;;;14.65;3.50;;;21.20;99.90;;;;;;5125780;28;20219;-89
2022/10/22 12:09:36;;;;;;;18.88;3.58;;;21.20;99.90;;;;;;5096777;28;20191;-88
2022/10/22 12:12:15;;;;;;;15.00;3.60;;;21.20;99.90;;;;;;5079396;28;20199;-89
2022/10/22 12:15:01;;;;;;;15.82;3.78;;;21.20;99.90;;;;;;5074794;28;20205;-89
2022/10/22 12:17:35;;;;;;;22.10;3.70;;;21.20;99.90;;;;;;5078199;28;20200;-89
2022/10/22 12:20:16;;;;;;;13.40;3.67;;;21.20;99.90;;;;;;5075967;28;20195;-90
2022/10/22 12:22:47;;;;;;;16.63;3.63;;;21.20;99.90;;;;;;5075437;28;20617;-89
2022/10/22 12:25:39;;;;;;;17.65;3.60;;;21.20;99.90;;;;;;5089305;28;20732;-90
2022/10/22 12:28:15;;;;;;;21.13;4.13;;;21.20;99.90;;;;;;5087739;28;20196;-90
2022/10/22 12:30:47;;;;;;;19.35;3.60;;;21.20;99.90;;;;;;5076210;28;20188;-89
2022/10/22 12:33:27;;;;;;;17.63;3.70;;;21.20;99.90;;;;;;5078365;28;20188;-89
2022/10/22 12:36:02;;;;;;;18.73;4.30;;;21.10;99.90;;;;;;5085147;28;20218;-89
2022/10/22 12:38:36;;;;;;;15.48;3.42;;;21.10;99.90;;;;;;5097926;28;20188;-86
2022/10/22 12:41:17;;;;;;;13.02;3.22;;;21.20;99.90;;;;;;5111699;28;20251;-89
2022/10/22 12:43:49;;;;;;;15.70;3.63;;;21.10;99.90;;;;;;5065704;28;20203;-89
2022/10/22 12:46:20;;;;;;;12.75;3.63;;;21.10;99.90;;;;;;5084906;28;20216;-88
2022/10/22 12:48:51;;;;;;;15.88;3.78;;;21.20;99.90;;;;;;5079980;28;20275;-88
2022/10/22 12:51:24;;;;;;;13.57;3.40;;;21.20;99.90;;;;;;5091953;28;20223;-88
2022/10/22 12:53:57;;;;;;;13.23;3.47;;;21.20;99.90;;;;;;5078182;28;20214;-88
2022/10/22 12:56:33;;;;;;;11.95;3.40;;;21.20;99.90;;;;;;5077360;28;20192;-89
2022/10/22 12:59:09;;;;;;;11.60;3.17;;;21.10;99.90;;;;;;5085193;28;20624;-91
2022/10/22 13:01:44;;;;;;;12.85;3.50;;;21.20;99.90;;;;;;5085903;28;20213;-90
2022/10/22 13:04:25;;;;;;;17.45;3.55;;;21.20;99.90;;;;;;5081562;28;20290;-91
2022/10/22 13:07:09;;;;;;;12.32;3.63;;;21.20;99.90;;;;;;5075968;28;20249;-89
2022/10/22 13:09:45;;;;;;;17.55;3.63;;;21.20;99.90;;;;;;5086343;28;20243;-85
2022/10/22 13:12:28;;;;;;;10.95;2.90;;;21.20;99.90;;;;;;5093514;28;20271;-90
2022/10/22 13:15:20;;;;;;;12.13;3.17;;;21.20;99.90;;;;;;5095396;28;20282;-91
2022/10/22 13:17:51;;;;;;;15.57;3.17;;;21.20;99.90;;;;;;5088837;28;20196;-90
2022/10/22 13:20:26;;;;;;;11.90;3.33;;;21.20;99.90;;;;;;5075084;28;20200;-90
2022/10/22 13:23:01;;;;;;;9.65;3.03;;;21.20;99.90;;;;;;5075068;28;20287;-90
2022/10/22 13:25:34;;;;;;;11.18;3.13;;;21.20;99.90;;;;;;5074248;28;20226;-91
2022/10/22 13:28:23;;;;;;;14.15;3.45;;;21.20;99.90;;;;;;5075949;28;20287;-90
2022/10/22 13:30:58;;;;;;;11.13;3.40;;;21.20;99.90;;;;;;5093038;28;20194;-90
2022/10/22 13:33:34;;;;;;;8.75;2.85;;;21.20;99.90;;;;;;5115035;28;20194;-90